Terminal Aerodrome Forecast
Issued by NWS Twin Cities, MN

Home | Current Version | Previous Version | Text Only | Print | Product List | Glossary On
Versions: 1 2 3 4 5 6 7 8 9 10 11 12 13 14 15 16 17 18
859
FTUS43 KMPX 271120
TAFEAU
TAF
KEAU 271120Z 2712/2812 08004KT P6SM VCSH BKN050 OVC090
     FM271300 12007KT 6SM -SHRA SCT025 OVC050
      TEMPO 2714/2718 3SM TSRA OVC020CB
     FM272100 17009KT P6SM SCT025 OVC050
     FM280800 14004KT 4SM -SHRA BR SCT007 OVC015=

USA.gov is the U.S. government's official web portal to all federal, state and local government web resources and services.